Time,TemperatureF,DewpointF,PressureIn,WindDirection,WindDirectionDegrees,WindSpeedMPH,WindSpeedGustMPH,Humidity,HourlyPrecipIn,Conditions,Clouds,dailyrainin,SoftwareType,DateUTC
2013-07-22 00:01:00,62.2,60.5,29.85,SSE,157,0.0,0.0,94,0.00,,,0.00,WUHU21623XXSP,2013-07-22 05:01:00,
2013-07-22 00:06:00,62.1,60.3,29.86,SSE,157,0.0,0.0,94,0.00,,,0.00,WUHU21623XXSP,2013-07-22 05:06:00,
2013-07-22 00:11:00,62.1,60.3,29.85,SSE,157,0.0,0.0,94,0.00,,,0.00,WUHU21623XXSP,2013-07-22 05:11:00,
2013-07-22 00:16:00,61.9,60.2,29.85,SSE,157,0.0,0.0,94,0.00,,,0.00,WUHU21623XXSP,2013-07-22 05:16:00,
2013-07-22 00:21:00,61.9,60.2,29.86,SSE,157,0.0,0.0,94,0.00,,,0.00,WUHU21623XXSP,2013-07-22 05:21:00,
2013-07-22 00:26:00,61.5,59.5,29.86,SSE,157,0.0,0.0,93,0.00,,,0.00,WUHU21623XXSP,2013-07-22 05:26:00,
2013-07-22 00:31:00,61.5,59.5,29.86,SSE,157,0.0,0.0,93,0.00,,,0.00,WUHU21623XXSP,2013-07-22 05:31:00,
2013-07-22 00:36:00,61.5,59.5,29.86,SSE,157,0.0,0.0,93,0.00,,,0.00,WUHU21623XXSP,2013-07-22 05:36:00,
2013-07-22 00:41:00,61.5,59.8,29.85,SSE,157,0.0,0.0,94,0.00,,,0.00,WUHU21623XXSP,2013-07-22 05:41:00,
2013-07-22 00:46:00,61.5,59.8,29.86,SSE,157,0.0,0.0,94,0.00,,,0.00,WUHU21623XXSP,2013-07-22 05:46:00,
2013-07-22 00:51:00,61.3,59.6,29.85,SSE,157,0.0,0.0,94,0.00,,,0.00,WUHU21623XXSP,2013-07-22 05:51:00,
2013-07-22 00:56:00,61.2,59.4,29.85,SSE,157,0.0,0.0,94,0.00,,,0.00,WUHU21623XXSP,2013-07-22 05:56:00,
2013-07-22 01:01:00,61.2,59.4,29.85,SSE,157,0.0,0.0,94,0.00,,,0.00,WUHU21623XXSP,2013-07-22 06:01:00,
2013-07-22 01:06:00,61.2,59.4,29.85,ENE,67,0.0,0.0,94,0.00,,,0.00,WUHU21623XXSP,2013-07-22 06:06:00,
2013-07-22 01:11:00,61.0,59.3,29.84,ENE,67,0.0,0.0,94,0.00,,,0.00,WUHU21623XXSP,2013-07-22 06:11:00,
2013-07-22 01:16:00,61.0,59.3,29.84,NE,45,0.0,0.0,94,0.00,,,0.00,WUHU21623XXSP,2013-07-22 06:16:00,
2013-07-22 01:21:00,61.0,59.3,29.83,NE,45,0.0,0.0,94,0.00,,,0.00,WUHU21623XXSP,2013-07-22 06:21:00,
2013-07-22 01:26:00,61.0,59.3,29.83,South,180,0.0,1.3,94,0.00,,,0.00,WUHU21623XXSP,2013-07-22 06:26:00,
2013-07-22 01:31:00,61.0,59.3,29.83,South,180,0.0,1.3,94,0.00,,,0.00,WUHU21623XXSP,2013-07-22 06:31:00,
2013-07-22 01:36:00,61.0,59.3,29.83,South,180,0.0,0.0,94,0.00,,,0.00,WUHU21623XXSP,2013-07-22 06:36:00,
2013-07-22 01:41:00,61.0,59.1,29.83,South,180,0.0,0.0,94,0.00,,,0.00,WUHU21623XXSP,2013-07-22 06:41:00,
2013-07-22 01:46:00,60.8,59.1,29.82,WNW,292,0.0,0.0,94,0.00,,,0.00,WUHU21623XXSP,2013-07-22 06:46:00,
2013-07-22 01:51:00,60.6,58.9,29.82,WNW,292,0.0,0.0,94,0.00,,,0.00,WUHU21623XXSP,2013-07-22 06:51:00,
2013-07-22 01:56:00,60.6,58.9,29.81,WNW,292,0.0,0.0,94,0.00,,,0.00,WUHU21623XXSP,2013-07-22 06:56:00,
2013-07-22 02:01:00,60.6,58.9,29.81,South,180,0.0,0.0,94,0.00,,,0.00,WUHU21623XXSP,2013-07-22 07:01:00,
2013-07-22 02:06:00,60.6,58.9,29.81,South,180,0.0,1.3,94,0.00,,,0.00,WUHU21623XXSP,2013-07-22 07:06:00,
2013-07-22 02:11:00,60.6,58.9,29.81,South,180,0.0,1.3,94,0.00,,,0.00,WUHU21623XXSP,2013-07-22 07:11:00,
2013-07-22 02:16:00,60.6,58.9,29.81,South,180,0.0,0.0,94,0.00,,,0.00,WUHU21623XXSP,2013-07-22 07:16:00,
2013-07-22 02:21:00,60.6,58.9,29.81,South,180,0.0,0.0,94,0.00,,,0.00,WUHU21623XXSP,2013-07-22 07:21:00,
2013-07-22 02:26:00,60.6,59.2,29.81,South,180,0.0,0.0,95,0.00,,,0.00,WUHU21623XXSP,2013-07-22 07:26:00,
2013-07-22 02:31:00,60.6,59.2,29.81,South,180,0.0,0.0,95,0.00,,,0.00,WUHU21623XXSP,2013-07-22 07:31:00,
2013-07-22 02:36:00,60.6,59.2,29.81,South,180,0.0,0.0,95,0.00,,,0.00,WUHU21623XXSP,2013-07-22 07:36:00,
2013-07-22 02:41:00,60.6,59.2,29.81,South,180,1.1,1.1,95,0.00,,,0.00,WUHU21623XXSP,2013-07-22 07:41:00,
2013-07-22 02:46:00,60.8,59.4,29.81,SW,225,0.0,2.5,95,0.00,,,0.00,WUHU21623XXSP,2013-07-22 07:46:00,
2013-07-22 02:51:00,61.0,59.5,29.81,SE,135,0.0,2.5,95,0.00,,,0.00,WUHU21623XXSP,2013-07-22 07:51:00,
2013-07-22 02:56:00,61.0,59.5,29.81,WSW,247,0.0,2.0,95,0.00,,,0.00,WUHU21623XXSP,2013-07-22 07:56:00,
2013-07-22 03:01:00,61.0,59.5,29.81,South,180,0.0,2.0,95,0.00,,,0.00,WUHU21623XXSP,2013-07-22 08:01:00,
2013-07-22 03:06:00,61.2,59.7,29.81,ESE,112,0.0,0.7,95,0.00,,,0.00,WUHU21623XXSP,2013-07-22 08:06:00,
2013-07-22 03:11:00,61.2,59.7,29.81,SE,135,0.0,0.7,95,0.00,,,0.00,WUHU21623XXSP,2013-07-22 08:11:00,
2013-07-22 03:16:00,61.2,59.7,29.81,South,180,0.0,0.0,95,0.00,,,0.00,WUHU21623XXSP,2013-07-22 08:16:00,
2013-07-22 03:21:00,61.3,59.9,29.81,SE,135,0.0,0.0,95,0.00,,,0.00,WUHU21623XXSP,2013-07-22 08:21:00,
2013-07-22 03:26:00,61.3,59.9,29.81,South,180,0.0,0.0,95,0.00,,,0.00,WUHU21623XXSP,2013-07-22 08:26:00,
2013-07-22 03:31:00,61.3,59.9,29.81,South,180,0.0,0.0,95,0.00,,,0.00,WUHU21623XXSP,2013-07-22 08:31:00,
2013-07-22 03:36:00,61.3,59.9,29.81,SSE,157,0.0,1.3,95,0.00,,,0.00,WUHU21623XXSP,2013-07-22 08:36:00,
2013-07-22 03:41:00,61.2,59.7,29.81,SSE,157,0.0,1.3,95,0.00,,,0.00,WUHU21623XXSP,2013-07-22 08:41:00,
2013-07-22 03:46:00,61.2,59.7,29.81,SSE,157,0.0,0.0,95,0.00,,,0.00,WUHU21623XXSP,2013-07-22 08:46:00,
2013-07-22 03:51:00,61.3,59.9,29.82,SSE,157,0.0,0.0,95,0.00,,,0.00,WUHU21623XXSP,2013-07-22 08:51:00,
2013-07-22 03:56:00,61.3,59.9,29.82,South,180,0.0,0.0,95,0.00,,,0.00,WUHU21623XXSP,2013-07-22 08:56:00,
2013-07-22 04:01:00,61.5,60.1,29.82,South,180,0.0,0.0,95,0.00,,,0.00,WUHU21623XXSP,2013-07-22 09:01:00,
2013-07-22 04:06:00,61.5,60.1,29.82,SSE,157,0.0,0.0,95,0.00,,,0.00,WUHU21623XXSP,2013-07-22 09:06:00,
2013-07-22 04:11:00,61.7,60.3,29.81,SSW,202,0.0,0.0,95,0.00,,,0.00,WUHU21623XXSP,2013-07-22 09:11:00,
2013-07-22 04:16:00,61.9,60.4,29.81,South,180,0.0,0.0,95,0.00,,,0.00,WUHU21623XXSP,2013-07-22 09:16:00,
2013-07-22 04:21:00,61.9,60.4,29.82,WSW,247,0.0,0.0,95,0.00,,,0.00,WUHU21623XXSP,2013-07-22 09:21:00,
2013-07-22 04:26:00,62.1,60.6,29.82,SSW,202,0.0,0.0,95,0.00,,,0.00,WUHU21623XXSP,2013-07-22 09:26:00,
2013-07-22 04:31:00,62.1,60.6,29.81,West,270,0.0,0.0,95,0.00,,,0.00,WUHU21623XXSP,2013-07-22 09:31:00,
2013-07-22 04:36:00,62.2,60.8,29.81,SSW,202,0.0,1.8,95,0.00,,,0.00,WUHU21623XXSP,2013-07-22 09:36:00,
2013-07-22 04:41:00,62.2,60.8,29.81,WSW,247,0.0,1.8,95,0.00,,,0.00,WUHU21623XXSP,2013-07-22 09:41:00,
2013-07-22 04:46:00,62.2,60.8,29.82,WSW,247,0.0,0.0,95,0.00,,,0.00,WUHU21623XXSP,2013-07-22 09:46:00,
2013-07-22 04:51:00,62.2,60.8,29.82,SSW,202,0.0,0.0,95,0.00,,,0.00,WUHU21623XXSP,2013-07-22 09:51:00,
2013-07-22 04:56:00,62.4,61.0,29.81,SSE,157,0.0,0.0,95,0.00,,,0.00,WUHU21623XXSP,2013-07-22 09:56:00,
2013-07-22 05:01:00,62.4,61.0,29.81,South,180,0.0,1.1,95,0.00,,,0.00,WUHU21623XXSP,2013-07-22 10:01:00,
2013-07-22 05:06:00,62.4,61.0,29.81,South,180,0.0,1.3,95,0.00,,,0.00,WUHU21623XXSP,2013-07-22 10:06:00,
2013-07-22 05:11:00,62.4,61.0,29.81,South,180,0.0,1.3,95,0.00,,,0.00,WUHU21623XXSP,2013-07-22 10:11:00,
2013-07-22 05:16:00,62.4,61.0,29.81,SSE,157,0.0,1.1,95,0.00,,,0.00,WUHU21623XXSP,2013-07-22 10:16:00,
2013-07-22 05:21:00,62.6,61.2,29.80,SSE,157,0.0,2.0,95,0.00,,,0.00,WUHU21623XXSP,2013-07-22 10:21:00,
2013-07-22 05:26:00,62.8,61.6,29.81,South,180,0.0,2.7,96,0.00,,,0.00,WUHU21623XXSP,2013-07-22 10:26:00,
2013-07-22 05:31:00,62.8,61.6,29.80,SSE,157,0.0,2.7,96,0.00,,,0.00,WUHU21623XXSP,2013-07-22 10:31:00,
2013-07-22 05:36:00,63.0,61.5,29.80,SSW,202,0.0,1.8,95,0.00,,,0.00,WUHU21623XXSP,2013-07-22 10:36:00,
2013-07-22 05:41:00,63.0,61.8,29.79,South,180,0.0,1.8,96,0.00,,,0.00,WUHU21623XXSP,2013-07-22 10:41:00,
2013-07-22 05:46:00,63.1,62.0,29.79,SSE,157,0.0,0.0,96,0.00,,,0.00,WUHU21623XXSP,2013-07-22 10:46:00,
2013-07-22 05:51:00,63.1,62.0,29.79,WSW,247,0.0,1.6,96,0.00,,,0.00,WUHU21623XXSP,2013-07-22 10:51:00,
2013-07-22 05:56:00,63.3,62.0,29.79,East,90,0.0,1.6,96,0.00,,,0.00,WUHU21623XXSP,2013-07-22 10:56:00,
2013-07-22 06:01:00,63.3,62.2,29.78,WSW,247,0.0,2.5,96,0.00,,,0.00,WUHU21623XXSP,2013-07-22 11:01:00,
2013-07-22 06:06:00,63.5,62.3,29.78,NW,315,0.0,2.5,96,0.00,,,0.00,WUHU21623XXSP,2013-07-22 11:06:00,
2013-07-22 06:11:00,63.7,62.5,29.78,NE,45,0.0,0.0,96,0.00,,,0.00,WUHU21623XXSP,2013-07-22 11:11:00,
2013-07-22 06:16:00,63.9,62.7,29.78,WNW,292,0.0,1.1,96,0.00,,,0.00,WUHU21623XXSP,2013-07-22 11:16:00,
2013-07-22 06:21:00,64.0,62.9,29.78,NNW,337,0.0,1.1,96,0.00,,,0.00,WUHU21623XXSP,2013-07-22 11:21:00,
2013-07-22 06:26:00,64.0,62.9,29.78,NW,315,0.0,0.0,96,0.00,,,0.00,WUHU21623XXSP,2013-07-22 11:26:00,
2013-07-22 06:31:00,64.0,62.9,29.79,NNW,337,0.0,1.3,96,0.00,,,0.00,WUHU21623XXSP,2013-07-22 11:31:00,
2013-07-22 06:36:00,64.2,63.1,29.79,NNW,337,0.0,1.3,96,0.00,,,0.00,WUHU21623XXSP,2013-07-22 11:36:00,
2013-07-22 06:41:00,64.2,63.1,29.80,NW,315,0.0,0.0,96,0.00,,,0.00,WUHU21623XXSP,2013-07-22 11:41:00,
2013-07-22 06:46:00,64.6,63.4,29.80,NNW,337,0.0,0.0,96,0.00,,,0.00,WUHU21623XXSP,2013-07-22 11:46:00,
2013-07-22 06:51:00,64.6,63.4,29.79,North,0,0.0,1.3,96,0.00,,,0.00,WUHU21623XXSP,2013-07-22 11:51:00,
2013-07-22 06:56:00,64.8,63.6,29.79,North,0,0.0,1.3,96,0.00,,,0.00,WUHU21623XXSP,2013-07-22 11:56:00,
2013-07-22 07:01:00,64.8,63.6,29.79,North,0,0.0,0.0,96,0.00,,,0.00,WUHU21623XXSP,2013-07-22 12:01:00,
2013-07-22 07:06:00,65.1,63.9,29.79,SW,225,0.0,0.0,96,0.00,,,0.00,WUHU21623XXSP,2013-07-22 12:06:00,
2013-07-22 07:11:00,65.5,64.3,29.79,SSW,202,1.8,3.8,96,0.00,,,0.00,WUHU21623XXSP,2013-07-22 12:11:00,
2013-07-22 07:16:00,65.8,64.6,29.79,SSE,157,2.9,3.8,96,0.00,,,0.00,WUHU21623XXSP,2013-07-22 12:16:00,
2013-07-22 07:21:00,65.8,64.6,29.79,SW,225,3.8,5.8,96,0.00,,,0.00,WUHU21623XXSP,2013-07-22 12:21:00,
2013-07-22 07:26:00,66.0,64.8,29.79,SW,225,5.1,6.5,96,0.00,,,0.00,WUHU21623XXSP,2013-07-22 12:26:00,
2013-07-22 07:31:00,66.2,65.0,29.79,South,180,1.8,6.5,96,0.00,,,0.00,WUHU21623XXSP,2013-07-22 12:31:00,
2013-07-22 07:36:00,66.4,65.2,29.79,South,180,3.4,5.8,96,0.00,,,0.00,WUHU21623XXSP,2013-07-22 12:36:00,
2013-07-22 07:41:00,66.6,65.3,29.79,South,180,4.3,6.5,96,0.00,,,0.00,WUHU21623XXSP,2013-07-22 12:41:00,
2013-07-22 07:46:00,66.7,65.5,29.78,South,180,6.5,8.7,96,0.00,,,0.00,WUHU21623XXSP,2013-07-22 12:46:00,
2013-07-22 07:51:00,66.7,65.5,29.78,SW,225,2.0,9.2,96,0.00,,,0.00,WUHU21623XXSP,2013-07-22 12:51:00,
2013-07-22 07:56:00,66.9,65.7,29.78,SW,225,4.5,9.2,96,0.00,,,0.00,WUHU21623XXSP,2013-07-22 12:56:00,
2013-07-22 08:01:00,66.9,65.7,29.78,SW,225,3.8,7.2,96,0.00,,,0.00,WUHU21623XXSP,2013-07-22 13:01:00,
2013-07-22 08:06:00,67.1,65.9,29.78,WSW,247,5.1,6.3,96,0.00,,,0.00,WUHU21623XXSP,2013-07-22 13:06:00,
2013-07-22 08:11:00,67.3,66.1,29.78,SSW,202,3.1,6.3,96,0.00,,,0.00,WUHU21623XXSP,2013-07-22 13:11:00,
2013-07-22 08:16:00,67.8,66.6,29.78,SE,135,0.0,5.6,96,0.00,,,0.00,WUHU21623XXSP,2013-07-22 13:16:00,
2013-07-22 08:21:00,67.8,66.3,29.79,SSW,202,3.1,3.6,95,0.00,,,0.00,WUHU21623XXSP,2013-07-22 13:21:00,
2013-07-22 08:26:00,67.8,66.3,29.79,SSW,202,1.3,6.3,95,0.00,,,0.00,WUHU21623XXSP,2013-07-22 13:26:00,
2013-07-22 08:31:00,68.4,66.8,29.79,SW,225,4.7,6.3,95,0.00,,,0.00,WUHU21623XXSP,2013-07-22 13:31:00,
2013-07-22 08:36:00,68.2,66.7,29.79,SSW,202,4.3,6.0,95,0.00,,,0.00,WUHU21623XXSP,2013-07-22 13:36:00,
2013-07-22 08:41:00,68.5,67.0,29.78,SW,225,4.7,6.0,95,0.00,,,0.00,WUHU21623XXSP,2013-07-22 13:41:00,
2013-07-22 08:46:00,68.7,67.2,29.78,SSW,202,4.5,6.3,95,0.00,,,0.00,WUHU21623XXSP,2013-07-22 13:46:00,
2013-07-22 08:51:00,68.2,66.3,29.78,South,180,5.4,6.7,94,0.00,,,0.00,WUHU21623XXSP,2013-07-22 13:51:00,
2013-07-22 08:56:00,68.7,67.2,29.78,SSW,202,0.7,6.7,95,0.00,,,0.00,WUHU21623XXSP,2013-07-22 13:56:00,
2013-07-22 09:01:00,69.4,67.6,29.78,SSW,202,4.0,6.0,94,0.00,,,0.00,WUHU21623XXSP,2013-07-22 14:01:00,
2013-07-22 09:06:00,69.3,67.1,29.78,South,180,4.5,6.0,93,0.00,,,0.00,WUHU21623XXSP,2013-07-22 14:06:00,
2013-07-22 09:11:00,70.0,67.8,29.78,SW,225,4.5,7.6,93,0.00,,,0.00,WUHU21623XXSP,2013-07-22 14:11:00,
2013-07-22 09:16:00,70.3,67.9,29.78,SW,225,6.3,7.6,92,0.00,,,0.00,WUHU21623XXSP,2013-07-22 14:16:00,
2013-07-22 09:21:00,70.3,67.6,29.78,SSW,202,4.5,9.4,91,0.00,,,0.00,WUHU21623XXSP,2013-07-22 14:21:00,
2013-07-22 09:26:00,70.7,67.6,29.77,SW,225,3.1,9.4,90,0.00,,,0.00,WUHU21623XXSP,2013-07-22 14:26:00,
2013-07-22 09:31:00,71.4,68.4,29.77,SW,225,6.0,9.8,90,0.00,,,0.00,WUHU21623XXSP,2013-07-22 14:31:00,
2013-07-22 09:36:00,72.1,68.7,29.78,South,180,2.7,9.8,89,0.00,,,0.00,WUHU21623XXSP,2013-07-22 14:36:00,
2013-07-22 09:41:00,72.1,68.1,29.77,SW,225,3.6,10.5,87,0.00,,,0.00,WUHU21623XXSP,2013-07-22 14:41:00,
2013-07-22 09:46:00,72.1,68.1,29.77,SW,225,4.5,10.5,87,0.00,,,0.00,WUHU21623XXSP,2013-07-22 14:46:00,
2013-07-22 09:51:00,72.9,68.4,29.78,SE,135,2.2,8.3,86,0.00,,,0.00,WUHU21623XXSP,2013-07-22 14:51:00,
2013-07-22 09:56:00,73.2,68.5,29.78,SSW,202,6.5,9.2,85,0.00,,,0.00,WUHU21623XXSP,2013-07-22 14:56:00,
2013-07-22 10:01:00,73.2,68.1,29.77,SSW,202,2.9,9.2,84,0.00,,,0.00,WUHU21623XXSP,2013-07-22 15:01:00,
2013-07-22 10:06:00,73.6,68.5,29.77,SW,225,2.2,9.2,84,0.00,,,0.00,WUHU21623XXSP,2013-07-22 15:06:00,
2013-07-22 10:11:00,74.1,69.0,29.77,SSE,157,2.2,9.2,84,0.00,,,0.00,WUHU21623XXSP,2013-07-22 15:11:00,
2013-07-22 10:16:00,74.5,69.0,29.76,SSW,202,3.8,9.2,83,0.00,,,0.00,WUHU21623XXSP,2013-07-22 15:16:00,
2013-07-22 10:21:00,74.5,68.7,29.76,SSW,202,2.9,9.2,82,0.00,,,0.00,WUHU21623XXSP,2013-07-22 15:21:00,
2013-07-22 10:26:00,75.4,69.6,29.77,SSW,202,4.9,6.9,82,0.00,,,0.00,WUHU21623XXSP,2013-07-22 15:26:00,
2013-07-22 10:31:00,75.7,69.5,29.76,WNW,292,4.5,5.8,81,0.00,,,0.00,WUHU21623XXSP,2013-07-22 15:31:00,
2013-07-22 10:36:00,76.6,70.0,29.77,SSE,157,2.5,5.8,80,0.00,,,0.00,WUHU21623XXSP,2013-07-22 15:36:00,
2013-07-22 10:41:00,76.6,69.6,29.77,South,180,0.0,5.8,79,0.00,,,0.00,WUHU21623XXSP,2013-07-22 15:41:00,
2013-07-22 10:46:00,77.4,70.3,29.77,SW,225,2.7,5.8,79,0.00,,,0.00,WUHU21623XXSP,2013-07-22 15:46:00,
2013-07-22 10:51:00,78.1,70.6,29.76,SW,225,7.4,7.4,78,0.00,,,0.00,WUHU21623XXSP,2013-07-22 15:51:00,
2013-07-22 10:56:00,77.2,69.4,29.78,SW,225,5.4,7.4,77,0.00,,,0.00,WUHU21623XXSP,2013-07-22 15:56:00,
2013-07-22 11:01:00,77.5,70.1,29.77,SW,225,3.1,6.3,78,0.00,,,0.00,WUHU21623XXSP,2013-07-22 16:01:00,
2013-07-22 11:06:00,78.4,70.6,29.77,WSW,247,3.8,5.1,77,0.00,,,0.00,WUHU21623XXSP,2013-07-22 16:06:00,
2013-07-22 11:11:00,78.4,70.2,29.78,SW,225,2.7,6.7,76,0.00,,,0.00,WUHU21623XXSP,2013-07-22 16:11:00,
2013-07-22 11:16:00,78.4,70.2,29.78,South,180,5.1,7.8,76,0.00,,,0.00,WUHU21623XXSP,2013-07-22 16:16:00,
2013-07-22 11:21:00,78.6,69.6,29.78,SW,225,2.5,8.9,74,0.00,,,0.00,WUHU21623XXSP,2013-07-22 16:21:00,
2013-07-22 11:26:00,79.2,70.1,29.77,SSW,202,7.2,8.9,74,0.00,,,0.00,WUHU21623XXSP,2013-07-22 16:26:00,
2013-07-22 11:31:00,79.2,70.1,29.77,SSW,202,6.3,8.5,74,0.00,,,0.00,WUHU21623XXSP,2013-07-22 16:31:00,
2013-07-22 11:36:00,79.0,69.2,29.77,SSW,202,4.7,11.0,72,0.00,,,0.00,WUHU21623XXSP,2013-07-22 16:36:00,
2013-07-22 11:41:00,79.0,68.8,29.77,SE,135,4.9,11.0,71,0.00,,,0.00,WUHU21623XXSP,2013-07-22 16:41:00,
2013-07-22 11:46:00,79.7,69.1,29.78,SW,225,5.1,9.6,70,0.00,,,0.00,WUHU21623XXSP,2013-07-22 16:46:00,
2013-07-22 11:51:00,80.1,69.0,29.77,SSW,202,2.0,9.6,69,0.00,,,0.00,WUHU21623XXSP,2013-07-22 16:51:00,
2013-07-22 11:56:00,80.2,69.2,29.77,SE,135,4.3,8.5,69,0.00,,,0.00,WUHU21623XXSP,2013-07-22 16:56:00,
2013-07-22 12:01:00,81.0,69.9,29.77,SW,225,6.9,9.6,69,0.00,,,0.00,WUHU21623XXSP,2013-07-22 17:01:00,
2013-07-22 12:06:00,80.4,68.0,29.77,SSE,157,4.7,9.8,66,0.00,,,0.00,WUHU21623XXSP,2013-07-22 17:06:00,
2013-07-22 12:11:00,80.1,67.7,29.77,SW,225,3.6,13.2,66,0.00,,,0.00,WUHU21623XXSP,2013-07-22 17:11:00,
2013-07-22 12:16:00,80.2,68.7,29.77,SSE,157,3.6,13.2,68,0.00,,,0.00,WUHU21623XXSP,2013-07-22 17:16:00,
2013-07-22 12:21:00,80.6,68.2,29.77,South,180,6.7,12.1,66,0.00,,,0.00,WUHU21623XXSP,2013-07-22 17:21:00,
2013-07-22 12:26:00,80.4,67.6,29.77,SSE,157,3.4,13.4,65,0.00,,,0.00,WUHU21623XXSP,2013-07-22 17:26:00,
2013-07-22 12:31:00,80.4,68.0,29.76,SSW,202,8.7,13.4,66,0.00,,,0.00,WUHU21623XXSP,2013-07-22 17:31:00,
2013-07-22 12:36:00,80.6,67.7,29.76,WSW,247,6.3,17.4,65,0.00,,,0.00,WUHU21623XXSP,2013-07-22 17:36:00,
2013-07-22 12:41:00,80.8,67.9,29.76,SSW,202,6.3,17.4,65,0.00,,,0.00,WUHU21623XXSP,2013-07-22 17:41:00,
2013-07-22 12:46:00,80.6,67.3,29.76,SSW,202,7.8,13.9,64,0.00,,,0.00,WUHU21623XXSP,2013-07-22 17:46:00,
2013-07-22 12:51:00,81.1,68.7,29.75,SSW,202,8.3,14.5,66,0.00,,,0.00,WUHU21623XXSP,2013-07-22 17:51:00,
2013-07-22 12:57:00,81.1,68.2,29.75,SW,225,8.9,14.5,65,0.00,,,0.00,WUHU21623XXSP,2013-07-22 17:57:00,
2013-07-22 13:02:00,81.3,68.8,29.75,SSW,202,4.9,12.3,66,0.00,,,0.00,WUHU21623XXSP,2013-07-22 18:02:00,
2013-07-22 13:07:00,81.5,69.0,29.75,WSW,247,11.6,11.6,66,0.00,,,0.00,WUHU21623XXSP,2013-07-22 18:07:00,
2013-07-22 13:12:00,81.3,67.9,29.75,WSW,247,7.8,15.2,64,0.00,,,0.00,WUHU21623XXSP,2013-07-22 18:12:00,
2013-07-22 13:17:00,81.7,68.7,29.75,SW,225,11.9,15.2,65,0.00,,,0.00,WUHU21623XXSP,2013-07-22 18:17:00,
2013-07-22 13:22:00,81.3,68.8,29.75,SW,225,5.8,13.6,66,0.00,,,0.00,WUHU21623XXSP,2013-07-22 18:22:00,
2013-07-22 13:28:00,81.5,68.5,29.74,SW,225,4.7,14.3,65,0.00,,,0.00,WUHU21623XXSP,2013-07-22 18:28:00,
2013-07-22 13:33:00,81.7,67.8,29.74,SSW,202,11.9,16.3,63,0.00,,,0.00,WUHU21623XXSP,2013-07-22 18:33:00,
2013-07-22 13:38:00,82.0,68.1,29.73,South,180,6.0,16.3,63,0.00,,,0.00,WUHU21623XXSP,2013-07-22 18:38:00,
2013-07-22 13:43:00,82.0,69.0,29.73,WSW,247,3.1,14.5,65,0.00,,,0.00,WUHU21623XXSP,2013-07-22 18:43:00,
2013-07-22 13:48:00,82.2,67.4,29.73,SW,225,10.3,17.4,61,0.00,,,0.00,WUHU21623XXSP,2013-07-22 18:48:00,
2013-07-22 13:53:00,82.2,67.4,29.73,SW,225,8.3,17.4,61,0.00,,,0.00,WUHU21623XXSP,2013-07-22 18:53:00,
2013-07-22 13:58:00,82.6,68.2,29.72,SSW,202,9.6,15.0,62,0.00,,,0.00,WUHU21623XXSP,2013-07-22 18:58:00,
2013-07-22 14:03:00,82.2,66.9,29.72,SW,225,6.5,12.5,60,0.00,,,0.00,WUHU21623XXSP,2013-07-22 19:03:00,
2013-07-22 14:08:00,82.8,67.5,29.71,SSE,157,8.5,15.2,60,0.00,,,0.00,WUHU21623XXSP,2013-07-22 19:08:00,
2013-07-22 14:13:00,82.9,67.6,29.71,South,180,4.0,15.2,60,0.00,,,0.00,WUHU21623XXSP,2013-07-22 19:13:00,
2013-07-22 14:18:00,82.9,67.6,29.71,WSW,247,10.3,17.4,60,0.00,,,0.00,WUHU21623XXSP,2013-07-22 19:18:00,
2013-07-22 14:23:00,83.3,68.5,29.72,SW,225,8.5,17.4,61,0.00,,,0.00,WUHU21623XXSP,2013-07-22 19:23:00,
2013-07-22 14:29:00,83.1,68.3,29.72,South,180,4.9,13.6,61,0.00,,,0.00,WUHU21623XXSP,2013-07-22 19:29:00,
2013-07-22 14:34:00,83.3,67.5,29.72,SSW,202,12.1,17.2,59,0.00,,,0.00,WUHU21623XXSP,2013-07-22 19:34:00,
2013-07-22 14:39:00,83.1,67.3,29.71,SW,225,14.1,18.3,59,0.00,,,0.00,WUHU21623XXSP,2013-07-22 19:39:00,
2013-07-22 14:44:00,83.1,67.3,29.71,SSE,157,7.2,18.3,59,0.00,,,0.00,WUHU21623XXSP,2013-07-22 19:44:00,
2013-07-22 14:49:00,83.3,68.0,29.70,SW,225,9.4,13.6,60,0.00,,,0.00,WUHU21623XXSP,2013-07-22 19:49:00,
2013-07-22 14:54:00,83.8,68.0,29.70,SSW,202,11.4,13.6,59,0.00,,,0.00,WUHU21623XXSP,2013-07-22 19:54:00,
2013-07-22 14:59:00,83.5,68.2,29.70,South,180,8.3,13.6,60,0.00,,,0.00,WUHU21623XXSP,2013-07-22 19:59:00,
2013-07-22 15:04:00,83.7,68.4,29.70,South,180,8.1,13.6,60,0.00,,,0.00,WUHU21623XXSP,2013-07-22 20:04:00,
2013-07-22 15:10:00,83.5,67.1,29.70,SSW,202,9.2,17.2,58,0.00,,,0.00,WUHU21623XXSP,2013-07-22 20:10:00,
2013-07-22 15:15:00,83.5,67.7,29.70,WNW,292,4.7,17.2,59,0.00,,,0.00,WUHU21623XXSP,2013-07-22 20:15:00,
2013-07-22 15:17:00,83.5,67.7,29.69,SSW,202,8.1,17.2,59,0.00,,,0.00,WUHU21623XXSP,2013-07-22 20:17:00,
2013-07-22 15:22:00,84.0,68.2,29.69,SSW,202,8.1,15.2,59,0.00,,,0.00,WUHU21623XXSP,2013-07-22 20:22:00,
2013-07-22 15:27:00,84.0,68.7,29.69,SSW,202,12.5,15.2,60,0.00,,,0.00,WUHU21623XXSP,2013-07-22 20:27:00,
2013-07-22 15:32:00,83.8,68.0,29.69,WSW,247,4.9,13.4,59,0.00,,,0.00,WUHU21623XXSP,2013-07-22 20:32:00,
2013-07-22 15:37:00,84.0,67.7,29.69,SW,225,9.2,14.5,58,0.00,,,0.00,WUHU21623XXSP,2013-07-22 20:37:00,
2013-07-22 15:42:00,83.8,68.0,29.69,SW,225,12.8,15.9,59,0.00,,,0.00,WUHU21623XXSP,2013-07-22 20:42:00,
2013-07-22 15:43:00,83.8,68.0,29.69,SSW,202,8.9,15.9,59,0.00,,,0.00,WUHU21623XXSP,2013-07-22 20:43:00,
2013-07-22 15:48:00,84.0,68.7,29.69,SSW,202,6.7,15.9,60,0.00,,,0.00,WUHU21623XXSP,2013-07-22 20:48:00,
2013-07-22 15:53:00,84.4,69.1,29.68,SW,225,5.6,14.5,60,0.00,,,0.00,WUHU21623XXSP,2013-07-22 20:53:00,
2013-07-22 15:58:00,84.2,68.9,29.68,South,180,7.6,15.0,60,0.00,,,0.00,WUHU21623XXSP,2013-07-22 20:58:00,
2013-07-22 16:03:00,83.8,68.5,29.68,SW,225,9.4,17.9,60,0.00,,,0.00,WUHU21623XXSP,2013-07-22 21:03:00,
2013-07-22 16:08:00,84.0,68.2,29.68,SW,225,14.1,17.9,59,0.00,,,0.00,WUHU21623XXSP,2013-07-22 21:08:00,
2013-07-22 16:13:00,84.0,68.7,29.68,WSW,247,11.9,17.9,60,0.00,,,0.00,WUHU21623XXSP,2013-07-22 21:13:00,
2013-07-22 16:18:00,84.0,68.2,29.68,SW,225,5.1,15.7,59,0.00,,,0.00,WUHU21623XXSP,2013-07-22 21:18:00,
2013-07-22 16:23:00,84.0,68.7,29.69,WSW,247,10.7,15.7,60,0.00,,,0.00,WUHU21623XXSP,2013-07-22 21:23:00,
2013-07-22 16:28:00,84.0,67.7,29.68,SSW,202,8.1,16.3,58,0.00,,,0.00,WUHU21623XXSP,2013-07-22 21:28:00,
2013-07-22 16:33:00,83.8,68.0,29.68,SSE,157,12.8,16.3,59,0.00,,,0.00,WUHU21623XXSP,2013-07-22 21:33:00,
2013-07-22 16:38:00,83.8,68.0,29.69,SSW,202,6.3,17.2,59,0.00,,,0.00,WUHU21623XXSP,2013-07-22 21:38:00,
2013-07-22 16:43:00,84.4,68.5,29.68,SSW,202,8.3,17.2,59,0.00,,,0.00,WUHU21623XXSP,2013-07-22 21:43:00,
2013-07-22 16:48:00,84.2,68.9,29.68,WSW,247,3.8,14.3,60,0.00,,,0.00,WUHU21623XXSP,2013-07-22 21:48:00,
2013-07-22 16:53:00,84.6,69.2,29.68,WSW,247,10.3,14.5,60,0.00,,,0.00,WUHU21623XXSP,2013-07-22 21:53:00,
2013-07-22 16:58:00,84.4,68.5,29.67,SSW,202,9.6,14.5,59,0.00,,,0.00,WUHU21623XXSP,2013-07-22 21:58:00,
2013-07-22 17:03:00,84.4,69.1,29.67,South,180,8.3,12.1,60,0.00,,,0.00,WUHU21623XXSP,2013-07-22 22:03:00,
2013-07-22 17:08:00,84.6,69.2,29.67,SSE,157,7.8,13.0,60,0.00,,,0.00,WUHU21623XXSP,2013-07-22 22:08:00,
2013-07-22 17:13:00,84.0,68.7,29.67,SSW,202,7.6,13.0,60,0.00,,,0.00,WUHU21623XXSP,2013-07-22 22:13:00,
2013-07-22 17:18:00,84.2,68.4,29.67,SSW,202,13.9,13.9,59,0.00,,,0.00,WUHU21623XXSP,2013-07-22 22:18:00,
2013-07-22 17:23:00,84.6,69.2,29.66,SW,225,3.6,13.9,60,0.00,,,0.00,WUHU21623XXSP,2013-07-22 22:23:00,
2013-07-22 17:28:00,84.7,69.8,29.66,South,180,6.0,13.2,61,0.00,,,0.00,WUHU21623XXSP,2013-07-22 22:28:00,
2013-07-22 17:33:00,84.4,69.1,29.67,SSW,202,8.9,14.3,60,0.00,,,0.00,WUHU21623XXSP,2013-07-22 22:33:00,
2013-07-22 17:38:00,84.4,70.0,29.67,SW,225,6.3,14.3,62,0.00,,,0.00,WUHU21623XXSP,2013-07-22 22:38:00,
2013-07-22 17:43:00,84.2,69.8,29.67,South,180,7.6,13.2,62,0.00,,,0.00,WUHU21623XXSP,2013-07-22 22:43:00,
2013-07-22 17:48:00,83.5,69.5,29.67,South,180,5.4,13.2,63,0.00,,,0.00,WUHU21623XXSP,2013-07-22 22:48:00,
2013-07-22 17:53:00,83.5,69.5,29.67,WSW,247,3.4,14.3,63,0.00,,,0.00,WUHU21623XXSP,2013-07-22 22:53:00,
2013-07-22 17:58:00,84.0,70.1,29.66,WSW,247,5.6,14.3,63,0.00,,,0.00,WUHU21623XXSP,2013-07-22 22:58:00,
2013-07-22 18:03:00,84.0,69.6,29.67,SSW,202,13.0,14.3,62,0.00,,,0.00,WUHU21623XXSP,2013-07-22 23:03:00,
2013-07-22 18:08:00,83.5,69.5,29.67,SSW,202,10.1,14.5,63,0.00,,,0.00,WUHU21623XXSP,2013-07-22 23:08:00,
2013-07-22 18:13:00,82.9,69.0,29.68,WSW,247,10.7,14.5,63,0.00,,,0.00,WUHU21623XXSP,2013-07-22 23:13:00,
2013-07-22 18:18:00,82.6,69.1,29.67,SW,225,8.9,12.1,64,0.00,,,0.00,WUHU21623XXSP,2013-07-22 23:18:00,
2013-07-22 18:23:00,82.0,69.0,29.67,SSW,202,3.4,12.1,65,0.00,,,0.00,WUHU21623XXSP,2013-07-22 23:23:00,
2013-07-22 18:28:00,82.0,69.5,29.67,SSW,202,5.8,9.4,66,0.00,,,0.00,WUHU21623XXSP,2013-07-22 23:28:00,
2013-07-22 18:33:00,81.7,69.6,29.67,SSW,202,7.8,10.5,67,0.00,,,0.00,WUHU21623XXSP,2013-07-22 23:33:00,
2013-07-22 18:38:00,81.3,69.7,29.67,SW,225,6.7,10.5,68,0.00,,,0.00,WUHU21623XXSP,2013-07-22 23:38:00,
2013-07-22 18:43:00,81.3,69.7,29.67,SSW,202,2.9,8.7,68,0.00,,,0.00,WUHU21623XXSP,2013-07-22 23:43:00,
2013-07-22 18:48:00,81.1,69.6,29.67,South,180,2.7,10.1,68,0.00,,,0.00,WUHU21623XXSP,2013-07-22 23:48:00,
2013-07-22 18:53:00,81.0,69.4,29.66,SSW,202,4.5,10.1,68,0.00,,,0.00,WUHU21623XXSP,2013-07-22 23:53:00,
2013-07-22 18:58:00,80.8,69.7,29.66,South,180,2.5,7.6,69,0.00,,,0.00,WUHU21623XXSP,2013-07-22 23:58:00,
2013-07-22 19:03:00,80.6,69.5,29.66,SSE,157,2.0,6.3,69,0.00,,,0.00,WUHU21623XXSP,2013-07-23 00:03:00,
2013-07-22 19:08:00,80.4,69.8,29.65,South,180,3.6,6.3,70,0.00,,,0.00,WUHU21623XXSP,2013-07-23 00:08:00,
2013-07-22 19:13:00,80.1,69.4,29.65,South,180,3.4,6.0,70,0.00,,,0.00,WUHU21623XXSP,2013-07-23 00:13:00,
2013-07-22 19:18:00,79.9,69.7,29.65,SSE,157,1.8,6.3,71,0.00,,,0.00,WUHU21623XXSP,2013-07-23 00:18:00,
2013-07-22 19:23:00,79.9,70.1,29.66,SW,225,6.0,6.3,72,0.00,,,0.00,WUHU21623XXSP,2013-07-23 00:23:00,
2013-07-22 19:28:00,79.7,69.9,29.65,South,180,3.6,10.3,72,0.00,,,0.00,WUHU21623XXSP,2013-07-23 00:28:00,
2013-07-22 19:33:00,79.5,69.7,29.65,SSW,202,7.2,10.3,72,0.00,,,0.00,WUHU21623XXSP,2013-07-23 00:33:00,
2013-07-22 19:38:00,79.5,69.7,29.65,SSW,202,6.0,9.2,72,0.00,,,0.00,WUHU21623XXSP,2013-07-23 00:38:00,
2013-07-22 19:43:00,79.3,69.9,29.65,SSW,202,6.9,9.2,73,0.00,,,0.00,WUHU21623XXSP,2013-07-23 00:43:00,
2013-07-22 19:48:00,79.3,69.9,29.65,SSW,202,6.9,9.8,73,0.00,,,0.00,WUHU21623XXSP,2013-07-23 00:48:00,
2013-07-22 19:53:00,79.3,69.9,29.65,SSW,202,7.4,11.6,73,0.00,,,0.00,WUHU21623XXSP,2013-07-23 00:53:00,
2013-07-22 19:58:00,79.3,69.9,29.65,SW,225,8.9,13.4,73,0.00,,,0.00,WUHU21623XXSP,2013-07-23 00:58:00,
2013-07-22 20:03:00,79.3,69.9,29.64,SW,225,14.8,14.8,73,0.00,,,0.00,WUHU21623XXSP,2013-07-23 01:03:00,
2013-07-22 20:08:00,79.2,69.7,29.63,South,180,5.1,14.8,73,0.00,,,0.00,WUHU21623XXSP,2013-07-23 01:08:00,
2013-07-22 20:13:00,79.0,69.9,29.62,South,180,2.7,12.1,74,0.00,,,0.00,WUHU21623XXSP,2013-07-23 01:13:00,
2013-07-22 20:18:00,78.6,69.6,29.62,SSW,202,4.7,10.3,74,0.00,,,0.00,WUHU21623XXSP,2013-07-23 01:18:00,
2013-07-22 20:23:00,78.6,70.0,29.61,SSE,157,6.9,9.2,75,0.00,,,0.00,WUHU21623XXSP,2013-07-23 01:23:00,
2013-07-22 20:28:00,78.6,70.0,29.61,SSE,157,4.9,11.2,75,0.00,,,0.00,WUHU21623XXSP,2013-07-23 01:28:00,
2013-07-22 20:33:00,78.6,70.0,29.60,SSW,202,9.2,11.2,75,0.00,,,0.00,WUHU21623XXSP,2013-07-23 01:33:00,
2013-07-22 20:38:00,78.4,70.2,29.60,South,180,5.4,12.5,76,0.00,,,0.00,WUHU21623XXSP,2013-07-23 01:38:00,
2013-07-22 20:43:00,78.4,70.2,29.60,South,180,7.6,13.9,76,0.00,,,0.00,WUHU21623XXSP,2013-07-23 01:43:00,
2013-07-22 20:48:00,78.4,70.2,29.59,SSW,202,7.6,13.9,76,0.00,,,0.00,WUHU21623XXSP,2013-07-23 01:48:00,
2013-07-22 20:53:00,78.6,70.4,29.60,SW,225,9.4,15.7,76,0.00,,,0.00,WUHU21623XXSP,2013-07-23 01:53:00,
2013-07-22 20:58:00,78.6,70.4,29.61,SW,225,2.9,15.7,76,0.00,,,0.00,WUHU21623XXSP,2013-07-23 01:58:00,
2013-07-22 21:03:00,78.6,70.4,29.62,South,180,6.0,11.6,76,0.00,,,0.00,WUHU21623XXSP,2013-07-23 02:03:00,
2013-07-22 21:08:00,78.6,70.0,29.63,South,180,4.0,10.7,75,0.00,,,0.00,WUHU21623XXSP,2013-07-23 02:08:00,
2013-07-22 21:13:00,78.6,70.0,29.65,WSW,247,0.0,8.9,75,0.00,,,0.00,WUHU21623XXSP,2013-07-23 02:13:00,
2013-07-22 21:18:00,78.4,69.8,29.65,ESE,112,1.3,7.6,75,0.00,,,0.00,WUHU21623XXSP,2013-07-23 02:18:00,
2013-07-22 21:23:00,77.9,69.7,29.65,East,90,0.0,1.6,76,0.00,,,0.00,WUHU21623XXSP,2013-07-23 02:23:00,
2013-07-22 21:28:00,77.5,69.7,29.65,ENE,67,0.0,1.6,77,0.00,,,0.00,WUHU21623XXSP,2013-07-23 02:28:00,
2013-07-22 21:33:00,76.8,69.0,29.66,SW,225,0.0,0.0,77,0.00,,,0.00,WUHU21623XXSP,2013-07-23 02:33:00,
2013-07-22 21:38:00,77.2,69.7,29.67,SW,225,2.0,2.0,78,0.00,,,0.00,WUHU21623XXSP,2013-07-23 02:38:00,
2013-07-22 21:43:00,77.5,69.7,29.67,SW,225,3.8,5.1,77,0.00,,,0.00,WUHU21623XXSP,2013-07-23 02:43:00,
2013-07-22 21:48:00,77.4,69.9,29.66,ESE,112,0.9,5.1,78,0.00,,,0.00,WUHU21623XXSP,2013-07-23 02:48:00,
2013-07-22 21:53:00,77.2,70.1,29.65,East,90,1.1,2.2,79,0.00,,,0.00,WUHU21623XXSP,2013-07-23 02:53:00,
2013-07-22 21:58:00,76.6,69.6,29.66,SSW,202,0.0,1.3,79,0.00,,,0.00,WUHU21623XXSP,2013-07-23 02:58:00,
2013-07-22 22:03:00,76.8,69.8,29.65,SW,225,3.1,6.5,79,0.00,,,0.00,WUHU21623XXSP,2013-07-23 03:03:00,
2013-07-22 22:08:00,77.0,69.6,29.65,SSE,157,0.0,6.5,78,0.00,,,0.00,WUHU21623XXSP,2013-07-23 03:08:00,
2013-07-22 22:13:00,76.6,69.2,29.65,SE,135,0.0,3.1,78,0.00,,,0.00,WUHU21623XXSP,2013-07-23 03:13:00,
2013-07-22 22:14:00,76.6,69.2,29.65,SSE,157,0.0,3.1,78,0.00,,,0.00,WUHU21623XXSP,2013-07-23 03:14:00,
2013-07-22 22:19:00,76.1,69.1,29.65,ENE,67,0.0,0.9,79,0.00,,,0.00,WUHU21623XXSP,2013-07-23 03:19:00,
2013-07-22 22:24:00,75.9,69.0,29.66,SW,225,0.0,0.0,79,0.00,,,0.00,WUHU21623XXSP,2013-07-23 03:24:00,
2013-07-22 22:29:00,75.7,69.2,29.66,ENE,67,0.0,0.0,80,0.00,,,0.00,WUHU21623XXSP,2013-07-23 03:29:00,
2013-07-22 22:34:00,75.7,69.5,29.67,North,0,2.0,2.2,81,0.00,,,0.00,WUHU21623XXSP,2013-07-23 03:34:00,
2013-07-22 22:39:00,75.9,69.7,29.68,North,0,0.0,2.2,81,0.00,,,0.00,WUHU21623XXSP,2013-07-23 03:39:00,
2013-07-22 22:44:00,75.9,69.7,29.67,NW,315,0.0,1.3,81,0.00,,,0.00,WUHU21623XXSP,2013-07-23 03:44:00,
2013-07-22 22:49:00,75.7,69.5,29.67,SE,135,0.0,0.0,81,0.00,,,0.00,WUHU21623XXSP,2013-07-23 03:49:00,
2013-07-22 22:54:00,75.4,69.2,29.66,SSE,157,0.0,0.0,81,0.00,,,0.00,WUHU21623XXSP,2013-07-23 03:54:00,
2013-07-22 22:59:00,75.0,69.2,29.67,SW,225,0.0,1.8,82,0.00,,,0.00,WUHU21623XXSP,2013-07-23 03:59:00,
2013-07-22 23:01:00,75.2,69.4,29.67,SW,225,2.5,2.7,82,0.00,,,0.00,WUHU21623XXSP,2013-07-23 04:01:00,
2013-07-22 23:06:00,75.2,69.4,29.67,SSW,202,4.0,4.5,82,0.00,,,0.00,WUHU21623XXSP,2013-07-23 04:06:00,
2013-07-22 23:11:00,75.4,69.6,29.67,WSW,247,0.0,4.5,82,0.00,,,0.00,WUHU21623XXSP,2013-07-23 04:11:00,
2013-07-22 23:16:00,75.4,69.6,29.68,SW,225,0.0,3.8,82,0.00,,,0.00,WUHU21623XXSP,2013-07-23 04:16:00,
2013-07-22 23:21:00,75.4,69.6,29.68,SSW,202,1.8,4.3,82,0.00,,,0.00,WUHU21623XXSP,2013-07-23 04:21:00,
2013-07-22 23:26:00,75.4,69.6,29.68,West,270,0.0,4.3,82,0.00,,,0.00,WUHU21623XXSP,2013-07-23 04:26:00,
2013-07-22 23:31:00,75.4,69.6,29.68,SW,225,2.7,3.6,82,0.00,,,0.00,WUHU21623XXSP,2013-07-23 04:31:00,
2013-07-22 23:36:00,75.6,69.7,29.68,SW,225,2.0,2.7,82,0.00,,,0.00,WUHU21623XXSP,2013-07-23 04:36:00,
2013-07-22 23:41:00,75.6,69.7,29.68,West,270,0.0,2.2,82,0.00,,,0.00,WUHU21623XXSP,2013-07-23 04:41:00,
2013-07-22 23:46:00,75.7,69.9,29.68,SW,225,0.0,2.2,82,0.00,,,0.00,WUHU21623XXSP,2013-07-23 04:46:00,
2013-07-22 23:51:00,75.7,69.9,29.68,WNW,292,0.0,2.0,82,0.12,,,0.12,WUHU21623XXSP,2013-07-23 04:51:00,
2013-07-22 23:56:00,75.7,69.5,29.68,WNW,292,0.0,3.8,81,0.12,,,0.12,WUHU21623XXSP,2013-07-23 04:56:00,